createdAt,value
2022-10-25T00:00:36.273Z,15.33
2022-10-25T00:01:36.405Z,15.40
2022-10-25T00:02:36.282Z,15.44
2022-10-25T00:03:36.214Z,15.36
2022-10-25T00:04:36.228Z,15.36
2022-10-25T00:05:36.197Z,15.33
2022-10-25T00:06:36.195Z,15.40
2022-10-25T00:07:36.198Z,15.36
2022-10-25T00:08:36.169Z,15.40
2022-10-25T00:09:36.167Z,15.37
2022-10-25T00:10:36.161Z,15.37
2022-10-25T00:11:36.137Z,15.36
2022-10-25T00:12:36.175Z,15.40
2022-10-25T00:13:36.121Z,15.42
2022-10-25T00:14:36.096Z,15.44
2022-10-25T00:15:36.101Z,15.39
2022-10-25T00:16:36.083Z,15.42
2022-10-25T00:17:36.071Z,15.36
2022-10-25T00:18:36.062Z,15.44
2022-10-25T00:19:36.067Z,15.39
2022-10-25T00:20:36.028Z,15.37
2022-10-25T00:21:36.055Z,15.29
2022-10-25T00:22:36.038Z,15.33
2022-10-25T00:23:36.001Z,15.33
2022-10-25T00:24:35.996Z,15.35
2022-10-25T00:25:36.000Z,15.33
2022-10-25T00:26:35.974Z,15.27
2022-10-25T00:27:35.985Z,15.28
2022-10-25T00:28:35.942Z,15.29
2022-10-25T00:29:35.989Z,15.36
2022-10-25T00:30:35.950Z,15.35
2022-10-25T00:31:35.919Z,15.27
2022-10-25T00:32:35.909Z,15.28
2022-10-25T00:33:35.904Z,15.27
2022-10-25T00:34:35.894Z,15.27
2022-10-25T00:35:35.897Z,15.25
2022-10-25T00:36:35.887Z,15.25
2022-10-25T00:37:35.897Z,15.31
2022-10-25T00:38:35.849Z,15.25
2022-10-25T00:39:35.831Z,15.24
2022-10-25T00:40:35.840Z,15.24
2022-10-25T00:41:35.818Z,15.24
2022-10-25T00:42:35.803Z,15.21
2022-10-25T00:43:35.824Z,15.21
2022-10-25T00:44:35.782Z,15.27
2022-10-25T00:45:35.762Z,15.18
2022-10-25T00:46:35.758Z,15.11
2022-10-25T00:47:35.742Z,15.07
2022-10-25T00:48:35.749Z,15.15
2022-10-25T00:49:35.720Z,15.09
2022-10-25T00:50:35.700Z,14.97
2022-10-25T00:51:35.709Z,15.04
2022-10-25T00:52:35.708Z,15.03
2022-10-25T00:53:35.700Z,15.06
2022-10-25T00:54:35.667Z,15.15
2022-10-25T00:55:35.651Z,15.07
2022-10-25T00:56:35.642Z,15.03
2022-10-25T00:57:35.669Z,14.99
2022-10-25T00:58:35.655Z,14.96
2022-10-25T00:59:35.610Z,14.97
2022-10-25T01:00:35.605Z,15.03
2022-10-25T01:01:35.717Z,15.04
2022-10-25T01:02:35.708Z,15.00
2022-10-25T01:03:35.570Z,15.00
2022-10-25T01:04:35.569Z,15.02
2022-10-25T01:05:35.539Z,14.97
2022-10-25T01:06:35.558Z,15.09
2022-10-25T01:07:35.527Z,15.03
2022-10-25T01:08:35.513Z,14.97
2022-10-25T01:09:35.517Z,14.97
2022-10-25T01:10:35.494Z,15.09
2022-10-25T01:11:35.497Z,15.03
2022-10-25T01:12:35.472Z,15.04
2022-10-25T01:13:35.464Z,15.02
2022-10-25T01:14:35.448Z,15.06
2022-10-25T01:15:35.446Z,15.06
2022-10-25T01:16:35.415Z,15.04
2022-10-25T01:17:35.441Z,14.97
2022-10-25T01:18:35.407Z,15.09
2022-10-25T01:19:35.393Z,15.04
2022-10-25T01:20:35.382Z,14.97
2022-10-25T01:21:35.384Z,15.04
2022-10-25T01:22:35.354Z,14.99
2022-10-25T01:23:35.348Z,15.02
2022-10-25T01:24:35.333Z,15.03
2022-10-25T01:25:35.340Z,15.07
2022-10-25T01:26:35.319Z,15.04
2022-10-25T01:27:35.302Z,15.02
2022-10-25T01:28:35.296Z,15.09
2022-10-25T01:29:35.297Z,15.04
2022-10-25T01:30:35.276Z,15.06
2022-10-25T01:31:35.254Z,15.07
2022-10-25T01:32:35.247Z,15.04
2022-10-25T01:33:35.234Z,15.14
2022-10-25T01:34:35.242Z,15.11
2022-10-25T01:35:35.237Z,15.14
2022-10-25T01:36:35.195Z,15.10
2022-10-25T01:37:35.189Z,15.09
2022-10-25T01:38:35.173Z,15.09
2022-10-25T01:39:35.166Z,15.06
2022-10-25T01:40:35.157Z,15.14
2022-10-25T01:41:35.174Z,15.07
2022-10-25T01:42:35.136Z,15.10
2022-10-25T01:43:35.130Z,15.06
2022-10-25T01:45:35.117Z,15.03
2022-10-25T01:46:35.094Z,15.06
2022-10-25T01:47:35.084Z,15.04
2022-10-25T01:48:35.083Z,15.10
2022-10-25T01:49:35.060Z,15.11
2022-10-25T01:50:35.059Z,15.10
2022-10-25T01:51:35.039Z,15.06
2022-10-25T01:52:35.025Z,15.14
2022-10-25T01:53:35.043Z,15.15
2022-10-25T01:54:34.997Z,15.18
2022-10-25T01:55:34.998Z,15.18
2022-10-25T01:56:34.979Z,15.19
2022-10-25T01:57:34.965Z,15.22
2022-10-25T01:58:34.977Z,15.21
2022-10-25T01:59:34.967Z,15.22
2022-10-25T02:00:34.972Z,15.24
2022-10-25T02:01:35.128Z,15.25
2022-10-25T02:02:34.915Z,15.18
2022-10-25T02:03:34.920Z,15.18
2022-10-25T02:04:34.891Z,15.09
2022-10-25T02:05:34.892Z,15.25
2022-10-25T02:06:34.877Z,15.11
2022-10-25T02:07:34.866Z,15.21
2022-10-25T02:08:34.863Z,15.18
2022-10-25T02:09:34.838Z,15.24
2022-10-25T02:10:34.862Z,15.19
2022-10-25T02:11:34.812Z,15.19
2022-10-25T02:12:34.807Z,15.27
2022-10-25T02:13:34.801Z,15.22
2022-10-25T02:14:34.791Z,15.24
2022-10-25T02:15:34.777Z,15.22
2022-10-25T02:16:34.793Z,15.27
2022-10-25T02:17:34.764Z,15.21
2022-10-25T02:18:34.747Z,15.19
2022-10-25T02:19:34.732Z,15.21
2022-10-25T02:20:34.718Z,15.22
2022-10-25T02:21:34.707Z,15.25
2022-10-25T02:22:34.707Z,15.25
2022-10-25T02:23:34.691Z,15.24
2022-10-25T02:24:34.677Z,15.27
2022-10-25T02:25:34.668Z,15.14
2022-10-25T02:26:34.647Z,15.24
2022-10-25T02:27:34.653Z,15.19
2022-10-25T02:28:34.628Z,15.15
2022-10-25T02:29:34.617Z,15.24
2022-10-25T02:30:34.613Z,15.22
2022-10-25T02:31:34.611Z,15.24
2022-10-25T02:32:34.609Z,15.22
2022-10-25T02:33:34.592Z,15.25
2022-10-25T02:34:34.562Z,15.25
2022-10-25T02:35:34.547Z,15.29
2022-10-25T02:36:34.545Z,15.28
2022-10-25T02:37:34.537Z,15.22
2022-10-25T02:38:34.543Z,15.27
2022-10-25T02:39:34.519Z,15.25
2022-10-25T02:40:34.499Z,15.29
2022-10-25T02:41:34.486Z,15.22
2022-10-25T02:42:34.473Z,15.33
2022-10-25T02:43:34.494Z,15.25
2022-10-25T02:44:34.469Z,15.28
2022-10-25T02:45:34.458Z,15.37
2022-10-25T02:46:34.442Z,15.27
2022-10-25T02:47:34.425Z,15.25
2022-10-25T02:48:34.420Z,15.36
2022-10-25T02:49:34.433Z,15.25
2022-10-25T02:50:34.411Z,15.25
2022-10-25T02:51:34.384Z,15.25
2022-10-25T02:52:34.367Z,15.33
2022-10-25T02:53:34.371Z,15.31
2022-10-25T02:54:34.361Z,15.36
2022-10-25T02:55:34.336Z,15.33
2022-10-25T02:56:34.328Z,15.36
2022-10-25T02:57:34.314Z,15.29
2022-10-25T02:58:34.321Z,15.33
2022-10-25T02:59:34.321Z,15.36
2022-10-25T03:00:34.416Z,15.36
2022-10-25T03:01:34.401Z,15.36
2022-10-25T03:02:34.261Z,15.39
2022-10-25T03:03:34.249Z,15.29
2022-10-25T03:04:34.243Z,15.35
2022-10-25T03:05:34.261Z,15.37
2022-10-25T03:06:34.227Z,15.33
2022-10-25T03:07:34.217Z,15.27
2022-10-25T03:08:34.199Z,15.25
2022-10-25T03:09:34.182Z,15.25
2022-10-25T03:10:34.179Z,15.24
2022-10-25T03:11:34.168Z,15.25
2022-10-25T03:12:34.156Z,15.27
2022-10-25T03:13:34.142Z,15.22
2022-10-25T03:14:34.160Z,15.25
2022-10-25T03:15:34.115Z,15.28
2022-10-25T03:16:34.182Z,15.19
2022-10-25T03:17:34.107Z,15.22
2022-10-25T03:18:34.099Z,15.21
2022-10-25T03:19:34.082Z,15.24
2022-10-25T03:20:34.059Z,15.29
2022-10-25T03:21:36.609Z,15.10
2022-10-25T03:22:34.044Z,15.24
2022-10-25T03:23:34.047Z,15.19
2022-10-25T03:24:34.030Z,15.24
2022-10-25T03:25:34.018Z,15.21
2022-10-25T03:26:33.999Z,15.11
2022-10-25T03:27:33.993Z,15.21
2022-10-25T03:28:34.000Z,15.17
2022-10-25T03:29:33.968Z,15.21
2022-10-25T03:30:33.950Z,15.17
2022-10-25T03:31:33.941Z,15.21
2022-10-25T03:32:33.936Z,15.21
2022-10-25T03:33:33.927Z,15.21
2022-10-25T03:34:33.921Z,15.21
2022-10-25T03:35:33.904Z,15.21
2022-10-25T03:36:33.895Z,15.14
2022-10-25T03:37:33.895Z,15.19
2022-10-25T03:38:33.888Z,15.22
2022-10-25T03:39:33.864Z,15.10
2022-10-25T03:40:33.848Z,15.22
2022-10-25T03:41:33.837Z,15.22
2022-10-25T03:42:33.822Z,15.21
2022-10-25T03:43:33.808Z,15.18
2022-10-25T03:44:33.829Z,15.22
2022-10-25T03:45:33.798Z,15.15
2022-10-25T03:46:33.773Z,15.18
2022-10-25T03:47:33.781Z,15.27
2022-10-25T03:48:33.756Z,15.21
2022-10-25T03:49:33.754Z,15.15
2022-10-25T03:50:33.743Z,15.19
2022-10-25T03:51:33.744Z,15.18
2022-10-25T03:52:33.712Z,15.09
2022-10-25T03:53:33.733Z,15.18
2022-10-25T03:54:33.705Z,15.21
2022-10-25T03:55:33.675Z,15.21
2022-10-25T03:56:33.663Z,15.19
2022-10-25T03:57:33.668Z,15.21
2022-10-25T03:58:33.651Z,15.21
2022-10-25T03:59:33.638Z,15.10
2022-10-25T04:00:33.700Z,15.22
2022-10-25T04:01:33.727Z,15.19
2022-10-25T04:02:33.611Z,15.22
2022-10-25T04:03:33.593Z,15.21
2022-10-25T04:04:33.578Z,15.19
2022-10-25T04:05:33.575Z,15.06
2022-10-25T04:06:33.584Z,15.21
2022-10-25T04:07:33.566Z,15.31
2022-10-25T04:08:33.549Z,15.27
2022-10-25T04:09:33.541Z,15.15
2022-10-25T04:10:33.507Z,15.24
2022-10-25T04:11:33.497Z,15.24
2022-10-25T04:12:33.508Z,15.27
2022-10-25T04:13:33.482Z,15.21
2022-10-25T04:14:33.487Z,15.09
2022-10-25T04:15:33.466Z,15.22
2022-10-25T04:16:33.446Z,15.24
2022-10-25T04:17:33.461Z,15.19
2022-10-25T04:18:33.426Z,15.11
2022-10-25T04:19:33.435Z,15.21
2022-10-25T04:20:33.417Z,15.06
2022-10-25T04:21:33.399Z,15.17
2022-10-25T04:22:33.449Z,15.19
2022-10-25T04:23:33.385Z,15.21
2022-10-25T04:24:33.371Z,15.21
2022-10-25T04:25:33.387Z,15.15
2022-10-25T04:26:33.345Z,15.14
2022-10-25T04:27:33.335Z,15.09
2022-10-25T04:28:33.324Z,15.11
2022-10-25T04:29:33.314Z,15.14
2022-10-25T04:30:36.523Z,15.19
2022-10-25T04:31:34.290Z,15.21
2022-10-25T04:32:33.302Z,15.07
2022-10-25T04:33:33.262Z,15.22
2022-10-25T04:34:33.255Z,15.22
2022-10-25T04:35:33.252Z,15.21
2022-10-25T04:36:33.265Z,15.22
2022-10-25T04:37:33.219Z,15.21
2022-10-25T04:38:33.218Z,15.21
2022-10-25T04:39:33.195Z,15.14
2022-10-25T04:40:33.190Z,15.14
2022-10-25T04:41:33.215Z,15.25
2022-10-25T04:42:33.186Z,15.14
2022-10-25T04:43:33.146Z,15.22
2022-10-25T04:44:33.147Z,15.11
2022-10-25T04:45:33.180Z,15.11
2022-10-25T04:46:33.123Z,15.24
2022-10-25T04:47:33.133Z,15.29
2022-10-25T04:48:33.122Z,15.19
2022-10-25T04:49:33.090Z,15.29
2022-10-25T04:50:33.076Z,15.27
2022-10-25T04:51:33.063Z,15.24
2022-10-25T04:52:33.071Z,15.29
2022-10-25T04:53:33.070Z,15.24
2022-10-25T04:54:33.039Z,15.22
2022-10-25T04:55:33.027Z,15.27
2022-10-25T04:56:33.007Z,15.25
2022-10-25T04:57:33.020Z,15.24
2022-10-25T04:58:33.009Z,15.24
2022-10-25T04:59:32.979Z,15.22
2022-10-25T05:00:32.971Z,15.28
2022-10-25T05:01:33.149Z,15.25
2022-10-25T05:02:32.999Z,15.27
2022-10-25T05:03:32.964Z,15.27
2022-10-25T05:04:32.922Z,15.21
2022-10-25T05:05:32.930Z,15.22
2022-10-25T05:06:32.913Z,15.27
2022-10-25T05:07:32.891Z,15.22
2022-10-25T05:08:32.890Z,15.09
2022-10-25T05:09:32.883Z,15.15
2022-10-25T05:10:32.854Z,15.14
2022-10-25T05:11:32.913Z,15.11
2022-10-25T05:12:32.832Z,15.15
2022-10-25T05:13:32.839Z,15.17
2022-10-25T05:14:32.822Z,15.09
2022-10-25T05:15:32.822Z,15.14
2022-10-25T05:16:32.789Z,15.03
2022-10-25T05:17:32.786Z,15.06
2022-10-25T05:18:32.776Z,15.03
2022-10-25T05:19:32.785Z,15.06
2022-10-25T05:20:32.756Z,14.99
2022-10-25T05:21:32.747Z,14.96
2022-10-25T05:22:32.727Z,14.91
2022-10-25T05:23:32.721Z,15.00
2022-10-25T05:24:32.708Z,14.97
2022-10-25T05:25:32.728Z,14.89
2022-10-25T05:26:32.687Z,14.91
2022-10-25T05:27:32.667Z,14.86
2022-10-25T05:28:32.659Z,14.82
2022-10-25T05:29:32.669Z,14.86
2022-10-25T05:30:32.665Z,14.86
2022-10-25T05:31:32.637Z,14.85
2022-10-25T05:32:32.669Z,14.85
2022-10-25T05:33:32.628Z,14.81
2022-10-25T05:34:32.599Z,14.82
2022-10-25T05:35:32.588Z,14.79
2022-10-25T05:36:32.612Z,14.77
2022-10-25T05:37:32.568Z,14.84
2022-10-25T05:38:34.380Z,14.82
2022-10-25T05:39:32.552Z,14.86
2022-10-25T05:40:32.536Z,14.79
2022-10-25T05:41:36.051Z,14.72
2022-10-25T05:42:32.519Z,14.84
2022-10-25T05:43:32.500Z,14.77
2022-10-25T05:44:32.494Z,14.79
2022-10-25T05:45:32.497Z,14.79
2022-10-25T05:46:32.490Z,14.77
2022-10-25T05:47:32.470Z,14.82
2022-10-25T05:48:32.449Z,14.77
2022-10-25T05:49:32.456Z,14.81
2022-10-25T05:50:32.476Z,14.86
2022-10-25T05:51:36.782Z,14.86
2022-10-25T05:52:32.419Z,14.88
2022-10-25T05:53:32.402Z,14.84
2022-10-25T05:54:32.382Z,14.79
2022-10-25T05:55:32.372Z,14.82
2022-10-25T05:56:32.362Z,14.89
2022-10-25T05:57:32.354Z,14.81
2022-10-25T05:58:32.345Z,14.88
2022-10-25T05:59:32.356Z,14.84
2022-10-25T06:00:32.353Z,14.81
2022-10-25T06:01:32.468Z,14.78
2022-10-25T06:02:32.348Z,14.82
2022-10-25T06:03:32.282Z,14.81
2022-10-25T06:04:32.274Z,14.84
2022-10-25T06:05:32.257Z,14.79
2022-10-25T06:06:32.286Z,14.82
2022-10-25T06:07:32.251Z,14.78
2022-10-25T06:08:32.240Z,14.81
2022-10-25T06:09:32.289Z,14.84
2022-10-25T06:10:32.218Z,14.91
2022-10-25T06:11:32.188Z,14.86
2022-10-25T06:12:32.179Z,14.85
2022-10-25T06:13:32.200Z,14.91
2022-10-25T06:14:32.157Z,14.96
2022-10-25T06:15:32.155Z,14.97
2022-10-25T06:16:32.142Z,14.99
2022-10-25T06:17:32.137Z,14.94
2022-10-25T06:18:32.118Z,14.99
2022-10-25T06:19:32.138Z,15.00
2022-10-25T06:20:32.210Z,15.09
2022-10-25T06:21:32.086Z,15.10
2022-10-25T06:22:32.077Z,15.14
2022-10-25T06:23:32.058Z,15.09
2022-10-25T06:24:32.061Z,15.11
2022-10-25T06:25:32.087Z,14.99
2022-10-25T06:26:32.030Z,15.00
2022-10-25T06:27:32.043Z,15.09
2022-10-25T06:28:32.055Z,14.94
2022-10-25T06:29:31.994Z,14.92
2022-10-25T06:30:32.045Z,14.97
2022-10-25T06:31:31.970Z,14.91
2022-10-25T06:32:31.985Z,14.91
2022-10-25T06:33:31.980Z,14.97
2022-10-25T06:34:31.945Z,14.96
2022-10-25T06:35:31.940Z,14.89
2022-10-25T06:36:31.937Z,14.92
2022-10-25T06:37:32.022Z,14.94
2022-10-25T06:38:31.895Z,14.97
2022-10-25T06:39:31.885Z,14.99
2022-10-25T06:40:31.869Z,14.99
2022-10-25T06:41:31.862Z,15.03
2022-10-25T06:42:31.858Z,14.99
2022-10-25T06:43:31.852Z,15.00
2022-10-25T06:44:31.829Z,14.99
2022-10-25T06:45:31.815Z,14.94
2022-10-25T06:46:31.829Z,14.91
2022-10-25T06:47:31.793Z,14.94
2022-10-25T06:48:31.800Z,14.97
2022-10-25T06:49:32.107Z,15.00
2022-10-25T06:50:31.760Z,15.00
2022-10-25T06:51:31.753Z,15.09
2022-10-25T06:52:31.756Z,15.09
2022-10-25T06:53:31.738Z,15.09
2022-10-25T06:54:31.731Z,15.21
2022-10-25T06:55:31.709Z,15.22
2022-10-25T06:56:31.708Z,15.17
2022-10-25T06:57:31.707Z,15.22
2022-10-25T06:58:31.669Z,15.31
2022-10-25T06:59:31.679Z,15.39
2022-10-25T07:00:31.648Z,15.46
2022-10-25T07:01:31.747Z,15.52
2022-10-25T07:02:31.718Z,15.54
2022-10-25T07:03:31.630Z,15.43
2022-10-25T07:04:31.652Z,15.57
2022-10-25T07:05:31.617Z,15.57
2022-10-25T07:07:31.573Z,15.59
2022-10-25T07:08:31.573Z,15.55
2022-10-25T07:09:31.562Z,15.59
2022-10-25T07:10:31.583Z,15.58
2022-10-25T07:11:31.538Z,15.64
2022-10-25T07:12:31.523Z,15.64
2022-10-25T07:13:31.518Z,15.64
2022-10-25T07:14:31.492Z,15.72
2022-10-25T07:15:31.510Z,15.75
2022-10-25T07:16:31.517Z,15.77
2022-10-25T07:17:31.476Z,15.79
2022-10-25T07:18:31.466Z,15.68
2022-10-25T07:19:31.470Z,15.57
2022-10-25T07:20:31.471Z,15.43
2022-10-25T07:21:31.443Z,15.52
2022-10-25T07:22:31.416Z,15.52
2022-10-25T07:23:31.410Z,15.58
2022-10-25T07:24:31.405Z,15.75
2022-10-25T07:25:31.393Z,15.77
2022-10-25T07:26:31.397Z,15.82
2022-10-25T07:27:31.378Z,15.76
2022-10-25T07:28:31.348Z,15.80
2022-10-25T07:29:31.343Z,15.75
2022-10-25T07:30:31.325Z,15.75
2022-10-25T07:31:31.346Z,15.64
2022-10-25T07:32:31.312Z,15.59
2022-10-25T07:33:31.287Z,15.58
2022-10-25T07:34:31.284Z,15.51
2022-10-25T07:35:35.552Z,15.54
2022-10-25T07:36:32.301Z,15.54
2022-10-25T07:37:31.260Z,15.51
2022-10-25T07:38:31.256Z,15.51
2022-10-25T07:39:31.275Z,15.51
2022-10-25T07:40:31.223Z,15.55
2022-10-25T07:41:31.209Z,15.52
2022-10-25T07:42:31.210Z,15.52
2022-10-25T07:43:31.194Z,15.52
2022-10-25T07:44:31.186Z,15.52
2022-10-25T07:45:31.338Z,15.55
2022-10-25T07:46:31.153Z,15.65
2022-10-25T07:47:31.160Z,15.73
2022-10-25T07:48:31.131Z,15.83
2022-10-25T07:49:31.124Z,15.84
2022-10-25T07:50:31.117Z,15.98
2022-10-25T07:51:31.104Z,16.01
2022-10-25T07:52:31.107Z,16.08
2022-10-25T07:53:31.100Z,16.10
2022-10-25T07:54:31.115Z,16.15
2022-10-25T07:55:31.063Z,16.08
2022-10-25T07:56:31.045Z,16.08
2022-10-25T07:57:31.034Z,15.95
2022-10-25T07:58:31.024Z,15.86
2022-10-25T07:59:31.029Z,15.82
2022-10-25T08:00:31.013Z,15.72
2022-10-25T08:01:31.024Z,15.68
2022-10-25T08:02:30.970Z,15.62
2022-10-25T08:03:31.103Z,15.67
2022-10-25T08:05:30.944Z,15.67
2022-10-25T08:06:30.944Z,15.80
2022-10-25T08:07:30.928Z,15.64
2022-10-25T08:08:30.943Z,15.83
2022-10-25T08:09:38.235Z,15.79
2022-10-25T08:10:31.892Z,15.83
2022-10-25T08:11:30.906Z,15.79
2022-10-25T08:12:30.902Z,15.77
2022-10-25T08:13:30.858Z,15.79
2022-10-25T08:14:32.215Z,15.70
2022-10-25T08:15:30.835Z,15.65
2022-10-25T08:16:30.828Z,15.64
2022-10-25T08:17:30.841Z,15.52
2022-10-25T08:18:30.815Z,15.57
2022-10-25T08:19:30.789Z,15.57
2022-10-25T08:20:49.521Z,15.67
2022-10-25T08:21:31.787Z,16.13
2022-10-25T08:22:30.755Z,16.49
2022-10-25T08:23:30.765Z,16.35
2022-10-25T08:24:30.748Z,16.32
2022-10-25T08:25:30.766Z,16.29
2022-10-25T08:26:36.519Z,16.16
2022-10-25T08:27:31.719Z,16.10
2022-10-25T08:28:30.738Z,16.04
2022-10-25T08:29:30.681Z,16.09
2022-10-25T08:30:30.681Z,15.86
2022-10-25T08:31:30.666Z,15.84
2022-10-25T08:32:30.675Z,15.88
2022-10-25T08:33:30.647Z,15.82
2022-10-25T08:34:33.089Z,15.70
2022-10-25T08:35:30.622Z,15.65
2022-10-25T08:36:30.612Z,15.54
2022-10-25T08:37:30.609Z,15.57
2022-10-25T08:38:30.592Z,15.54
2022-10-25T08:39:30.638Z,15.55
2022-10-25T08:40:30.562Z,15.51
2022-10-25T08:41:30.574Z,15.68
2022-10-25T08:42:30.550Z,15.80
2022-10-25T08:43:30.530Z,15.77
2022-10-25T08:44:30.518Z,15.79
2022-10-25T08:45:30.533Z,15.92
2022-10-25T08:46:30.504Z,15.90
2022-10-25T08:47:30.513Z,15.90
2022-10-25T08:48:30.480Z,15.91
2022-10-25T08:49:30.500Z,15.83
2022-10-25T08:50:30.468Z,15.80
2022-10-25T08:51:30.440Z,15.73
2022-10-25T08:52:30.437Z,15.84
2022-10-25T08:53:30.424Z,15.91
2022-10-25T08:54:30.415Z,15.91
2022-10-25T08:55:30.421Z,15.84
2022-10-25T08:56:30.406Z,15.77
2022-10-25T08:57:30.396Z,15.72
2022-10-25T08:58:30.372Z,15.82
2022-10-25T08:59:30.365Z,15.90
2022-10-25T09:00:30.362Z,15.86
2022-10-25T09:01:30.450Z,16.13
2022-10-25T09:02:30.469Z,16.39
2022-10-25T09:03:30.362Z,16.43
2022-10-25T09:04:30.315Z,16.54
2022-10-25T09:05:30.295Z,16.46
2022-10-25T09:06:30.281Z,16.42
2022-10-25T09:07:30.292Z,16.39
2022-10-25T09:08:30.253Z,16.46
2022-10-25T09:09:30.251Z,16.39
2022-10-25T09:10:30.240Z,16.38
2022-10-25T09:11:30.252Z,16.42
2022-10-25T09:12:30.223Z,16.35
2022-10-25T09:13:30.313Z,16.41
2022-10-25T09:14:30.202Z,16.29
2022-10-25T09:15:30.231Z,16.33
2022-10-25T09:16:30.165Z,16.28
2022-10-25T09:17:30.156Z,16.46
2022-10-25T09:18:30.170Z,16.43
2022-10-25T09:19:30.138Z,16.35
2022-10-25T09:20:30.130Z,16.26
2022-10-25T09:21:30.159Z,16.49
2022-10-25T09:22:30.117Z,16.41
2022-10-25T09:23:30.119Z,16.42
2022-10-25T09:24:30.098Z,16.47
2022-10-25T09:25:30.076Z,16.46
2022-10-25T09:26:30.069Z,16.56
2022-10-25T09:27:30.048Z,16.42
2022-10-25T09:28:30.037Z,16.42
2022-10-25T09:29:30.051Z,16.54
2022-10-25T09:30:30.034Z,16.56
2022-10-25T09:31:30.003Z,16.56
2022-10-25T09:32:30.003Z,16.61
2022-10-25T09:33:29.984Z,16.75
2022-10-25T09:34:29.991Z,16.68
2022-10-25T09:35:29.968Z,16.69
2022-10-25T09:36:29.964Z,16.87
2022-10-25T09:37:29.942Z,16.89
2022-10-25T09:38:29.936Z,17.02
2022-10-25T09:39:29.948Z,17.29
2022-10-25T09:40:29.910Z,17.39
2022-10-25T09:41:29.896Z,17.24
2022-10-25T09:42:29.887Z,17.27
2022-10-25T09:43:29.888Z,17.26
2022-10-25T09:44:29.860Z,17.26
2022-10-25T09:45:29.913Z,17.15
2022-10-25T09:46:29.839Z,17.24
2022-10-25T09:47:29.846Z,17.31
2022-10-25T09:48:29.817Z,17.22
2022-10-25T09:49:29.820Z,17.39
2022-10-25T09:50:29.795Z,17.52
2022-10-25T09:51:29.810Z,17.56
2022-10-25T09:52:29.773Z,17.49
2022-10-25T09:53:29.791Z,17.49
2022-10-25T09:54:29.755Z,17.56
2022-10-25T09:55:29.760Z,17.51
2022-10-25T09:56:29.740Z,17.54
2022-10-25T09:57:29.736Z,17.57
2022-10-25T09:58:29.715Z,17.54
2022-10-25T09:59:29.718Z,17.41
2022-10-25T10:00:29.693Z,17.45
2022-10-25T10:01:29.903Z,17.38
2022-10-25T10:02:29.777Z,17.39
2022-10-25T10:03:29.653Z,17.45
2022-10-25T10:04:29.637Z,17.36
2022-10-25T10:05:29.627Z,17.30
2022-10-25T10:06:29.660Z,17.27
2022-10-25T10:07:29.604Z,17.30
2022-10-25T10:08:29.608Z,17.30
2022-10-25T10:09:29.621Z,17.27
2022-10-25T10:10:29.583Z,17.15
2022-10-25T10:11:29.571Z,17.23
2022-10-25T10:12:29.585Z,17.14
2022-10-25T10:13:29.545Z,16.97
2022-10-25T10:14:29.536Z,17.02
2022-10-25T10:15:29.531Z,16.97
2022-10-25T10:16:29.510Z,17.02
2022-10-25T10:17:29.518Z,17.12
2022-10-25T10:18:29.527Z,17.14
2022-10-25T10:19:29.486Z,17.15
2022-10-25T10:20:29.471Z,17.11
2022-10-25T10:21:29.454Z,17.06
2022-10-25T10:22:29.444Z,17.12
2022-10-25T10:23:29.428Z,17.14
2022-10-25T10:24:29.436Z,17.04
2022-10-25T10:25:29.408Z,17.06
2022-10-25T10:26:29.397Z,16.93
2022-10-25T10:27:29.389Z,16.86
2022-10-25T10:28:29.400Z,16.81
2022-10-25T10:29:29.427Z,16.74
2022-10-25T10:30:29.359Z,16.71
2022-10-25T10:31:29.356Z,16.72
2022-10-25T10:32:29.366Z,16.78
2022-10-25T10:33:29.342Z,16.78
2022-10-25T10:34:29.337Z,16.66
2022-10-25T10:35:29.302Z,16.78
2022-10-25T10:36:29.287Z,16.71
2022-10-25T10:37:29.285Z,16.71
2022-10-25T10:38:29.274Z,16.68
2022-10-25T10:39:29.259Z,16.56
2022-10-25T10:40:29.271Z,16.60
2022-10-25T10:41:29.232Z,16.53
2022-10-25T10:42:29.224Z,16.65
2022-10-25T10:43:29.307Z,16.64
2022-10-25T10:44:29.209Z,16.64
2022-10-25T10:45:29.205Z,16.72
2022-10-25T10:46:29.184Z,16.69
2022-10-25T10:47:29.172Z,16.68
2022-10-25T10:48:29.163Z,16.75
2022-10-25T10:49:29.165Z,16.68
2022-10-25T10:50:29.137Z,16.75
2022-10-25T10:51:43.538Z,16.66
2022-10-25T10:52:30.130Z,16.75
2022-10-25T10:53:29.096Z,16.78
2022-10-25T10:54:29.115Z,16.79
2022-10-25T10:55:29.086Z,16.96
2022-10-25T10:56:29.102Z,16.94
2022-10-25T10:57:29.055Z,16.97
2022-10-25T10:58:29.047Z,17.05
2022-10-25T10:59:29.041Z,17.05
2022-10-25T11:00:29.036Z,17.12
2022-10-25T11:01:29.124Z,17.14
2022-10-25T11:02:29.227Z,17.19
2022-10-25T11:03:28.987Z,17.23
2022-10-25T11:04:28.998Z,17.26
2022-10-25T11:05:28.985Z,17.23
2022-10-25T11:06:28.966Z,17.24
2022-10-25T11:07:28.976Z,17.38
2022-10-25T11:08:28.935Z,17.41
2022-10-25T11:09:28.945Z,17.39
2022-10-25T11:10:29.031Z,17.41
2022-10-25T11:11:28.933Z,17.52
2022-10-25T11:12:28.889Z,17.51
2022-10-25T11:13:28.899Z,17.57
2022-10-25T11:14:28.865Z,17.60
2022-10-25T11:15:28.866Z,17.49
2022-10-25T11:16:28.847Z,17.64
2022-10-25T11:17:28.841Z,17.57
2022-10-25T11:18:28.853Z,17.65
2022-10-25T11:19:28.827Z,17.65
2022-10-25T11:20:28.798Z,17.72
2022-10-25T11:21:28.893Z,17.80
2022-10-25T11:22:32.140Z,17.83
2022-10-25T11:23:28.772Z,17.87
2022-10-25T11:24:28.763Z,18.07
2022-10-25T11:25:28.746Z,18.19
2022-10-25T11:26:28.758Z,18.23
2022-10-25T11:27:31.804Z,18.26
2022-10-25T11:28:29.752Z,18.16
2022-10-25T11:29:28.705Z,18.11
2022-10-25T11:30:28.703Z,18.15
2022-10-25T11:31:28.704Z,18.16
2022-10-25T11:32:28.731Z,18.29
2022-10-25T11:33:28.671Z,18.28
2022-10-25T11:34:28.680Z,18.35
2022-10-25T11:35:28.637Z,18.22
2022-10-25T11:36:28.628Z,18.31
2022-10-25T11:37:28.724Z,18.37
2022-10-25T11:38:28.599Z,18.55
2022-10-25T11:39:28.609Z,18.52
2022-10-25T11:40:28.584Z,18.55
2022-10-25T11:41:28.566Z,18.44
2022-10-25T11:42:28.557Z,18.45
2022-10-25T11:43:28.559Z,18.26
2022-10-25T11:44:28.537Z,18.41
2022-10-25T11:45:28.552Z,18.35
2022-10-25T11:46:28.515Z,18.35
2022-10-25T11:47:28.509Z,18.38
2022-10-25T11:48:28.497Z,18.40
2022-10-25T11:49:28.481Z,18.55
2022-10-25T11:50:28.476Z,18.62
2022-10-25T11:51:28.483Z,18.65
2022-10-25T11:52:28.445Z,18.75
2022-10-25T11:53:28.564Z,18.77
2022-10-25T11:54:28.430Z,18.80
2022-10-25T11:55:28.424Z,18.78
2022-10-25T11:56:28.431Z,18.81
2022-10-25T11:57:28.410Z,18.83
2022-10-25T11:58:28.387Z,18.77
2022-10-25T11:59:28.376Z,18.80
2022-10-25T12:00:28.415Z,18.84
2022-10-25T12:01:28.439Z,18.78
2022-10-25T12:02:28.398Z,18.77
2022-10-25T12:03:28.333Z,18.78
2022-10-25T12:04:29.553Z,18.74
2022-10-25T12:05:28.301Z,18.81
2022-10-25T12:06:28.300Z,19.00
2022-10-25T12:07:28.327Z,19.09
2022-10-25T12:08:28.271Z,18.98
2022-10-25T12:09:28.504Z,19.09
2022-10-25T12:10:28.245Z,19.08
2022-10-25T12:11:28.234Z,18.95
2022-10-25T12:12:28.220Z,18.99
2022-10-25T12:13:28.233Z,18.83
2022-10-25T12:14:28.208Z,18.75
2022-10-25T12:15:28.190Z,18.60
2022-10-25T12:16:28.185Z,18.62
2022-10-25T12:17:28.200Z,18.45
2022-10-25T12:18:28.165Z,18.28
2022-10-25T12:19:28.152Z,18.25
2022-10-25T12:20:28.208Z,18.31
2022-10-25T12:21:28.130Z,18.35
2022-10-25T12:22:28.121Z,18.33
2022-10-25T12:23:28.123Z,18.43
2022-10-25T12:24:28.096Z,18.55
2022-10-25T12:25:28.191Z,18.62
2022-10-25T12:26:28.070Z,18.70
2022-10-25T12:27:28.059Z,18.75
2022-10-25T12:28:28.044Z,18.80
2022-10-25T12:29:28.052Z,18.80
2022-10-25T12:30:28.030Z,18.93
2022-10-25T12:31:28.025Z,18.95
2022-10-25T12:32:28.001Z,18.98
2022-10-25T12:33:28.006Z,19.00
2022-10-25T12:34:28.016Z,18.95
2022-10-25T12:35:27.980Z,18.78
2022-10-25T12:36:27.971Z,18.78
2022-10-25T12:37:27.948Z,18.73
2022-10-25T12:38:27.991Z,18.62
2022-10-25T12:39:27.975Z,18.47
2022-10-25T12:40:27.920Z,18.41
2022-10-25T12:41:28.016Z,18.33
2022-10-25T12:42:27.908Z,18.23
2022-10-25T12:43:27.894Z,18.19
2022-10-25T12:44:27.874Z,18.07
2022-10-25T12:45:27.888Z,18.05
2022-10-25T12:46:27.859Z,18.04
2022-10-25T12:47:27.840Z,18.00
2022-10-25T12:48:27.826Z,17.89
2022-10-25T12:49:27.824Z,17.79
2022-10-25T12:50:27.806Z,17.89
2022-10-25T12:51:27.811Z,17.74
2022-10-25T12:52:27.790Z,17.72
2022-10-25T12:53:27.772Z,17.67
2022-10-25T12:54:27.775Z,17.68
2022-10-25T12:55:27.758Z,17.59